Flight Track Log - Related Links

Times and Time Zones

All times are in EDT time to prevent confusion due to time zone crossing. See the N983CA flight status page for this flight to view local times or setup timezone preferences in your user account.

Time Position Orientation Groundspeed Altitude Reporting Facility
EDT Latitude Longitude Course Direction KTS MPH feet Rate Location/Type
Thu 01:00:01 PM 34.1425 -118.4156 232° Southwest 219 252 5,400  Level Los Angeles Center
Thu 01:01:00 PM 34.3177 -118.6101 335° Northwest  Level FlightAware Approximate
Thu 01:01:03 PM 34.1844 -118.4678 314° West 228 262 8,700  Level Los Angeles Center
Thu 01:02:00 PM 34.4085 -118.6620 335° Northwest  Level FlightAware Approximate
Thu 01:02:05 PM 34.2456 -118.5106 330° Northwest 248 285 11,100  Level Los Angeles Center
Thu 01:03:00 PM 34.5011 -118.7089 338° Northwest  Level FlightAware Approximate
Thu 01:03:07 PM 34.3133 -118.5544 332° Northwest 270 311 13,600  Level Los Angeles Center
Thu 01:04:00 PM 34.5942 -118.7543 342° North  Level FlightAware Approximate
Thu 01:04:09 PM 34.3986 -118.6058 334° Northwest 285 328 15,200  Level Los Angeles Center
Thu 01:05:11 PM 34.4778 -118.6558 332° Northwest 321 369 16,700 1,323 Climbing Los Angeles Center
Thu 01:06:16 PM 34.5606 -118.7075 333° Northwest 336 387 18,000 1,500 Climbing Los Angeles Center
Thu 01:07:15 PM 34.6558 -118.7697 332° Northwest 346 398 19,800 1,426 Climbing Los Angeles Center
Thu 01:08:18 PM 34.7306 -118.8167 333° Northwest 348 400 20,900 1,104 Climbing Los Angeles Center
Thu 01:09:20 PM 34.8175 -118.8731 332° Northwest 351 404 22,100 1,210 Climbing Los Angeles Center
Thu 01:10:22 PM 34.9164 -118.9547 326° Northwest 356 410 23,400 1,355 Climbing Los Angeles Center
Thu 01:11:24 PM 34.9992 -119.0244 325° Northwest 361 415 24,900 968 Climbing Los Angeles Center
Thu 01:12:26 PM 35.0822 -119.0942 326° Northwest 366 421 25,400 532 Climbing Los Angeles Center
Thu 01:13:28 PM 35.1364 -119.2042 301° West 388 447 26,000 677 Climbing Los Angeles Center
Thu 01:14:30 PM 35.1908 -119.3158 301° West 384 442 26,800 810 Climbing Los Angeles Center
Thu 01:15:34 PM 35.2556 -119.4494 301° West 385 443 27,700 576 Climbing Los Angeles Center
Thu 01:16:35 PM 35.3119 -119.5619 302° West 387 445 28,000 146 Climbing Los Angeles Center
Thu 01:17:37 PM 35.3683 -119.6803 300° West 403 464 28,000  Level Los Angeles Center
Thu 01:18:15 PM 35.4011 -119.7489 300° West 407 468 28,000 -61 Level Oakland Center
Thu 01:19:16 PM 35.4597 -119.8708 301° West 418 481 27,900  Descending Oakland Center
Thu 01:20:18 PM 35.5189 -119.9936 301° West 422 486 28,000 49 Climbing Oakland Center
Thu 01:21:19 PM 35.5881 -120.1411 300° West 423 487 28,000  Level Oakland Center
Thu 01:22:21 PM 35.6458 -120.2633 300° West 422 486 28,000  Level Oakland Center
Thu 01:23:22 PM 35.7017 -120.3875 299° West 421 484 28,000  Level Oakland Center
Thu 01:24:23 PM 35.7542 -120.5161 297° West 425 489 28,000  Level Oakland Center
Thu 01:25:25 PM 35.8303 -120.6219 312° West 418 481 28,000  Level Oakland Center
Thu 01:26:26 PM 35.9064 -120.7283 311° West 415 478 28,000 -49 Level Oakland Center
Thu 01:27:28 PM 35.9956 -120.8583 310° West 415 478 27,900  Descending Oakland Center
Thu 01:28:29 PM 36.0714 -120.9669 311° West 416 479 28,000 49 Climbing Oakland Center
Thu 01:29:31 PM 36.1461 -121.0761 310° West 417 480 28,000  Level Oakland Center
Thu 01:30:32 PM 36.2208 -121.1839 311° West 415 478 28,000  Level Oakland Center
Thu 01:31:34 PM 36.2956 -121.2936 310° West 418 481 28,000 -49 Level Oakland Center
Thu 01:32:35 PM 36.3694 -121.4050 310° West 418 481 27,900  Descending Oakland Center
Thu 01:33:37 PM 36.4442 -121.5156 310° West 418 481 28,000 -390 Climbing Oakland Center
Thu 01:34:38 PM 36.5186 -121.6283 309° West 422 486 27,100 -2,237 Descending Oakland Center
Thu 01:35:35 PM 36.6000 -121.7500 310° West 398 458 23,600 -3,297 Descending Northern Cal TRACON
Thu 01:36:29 PM 36.6667 -121.8333 315° West 410 472 21,000 -2,947 Descending Northern Cal TRACON
Thu 01:37:29 PM 36.7333 -121.9500 306° West 388 447 18,000 -2,850 Descending Northern Cal TRACON
Thu 01:38:29 PM 36.8333 -121.9833 345° North 366 421 15,300 -2,850 Descending Northern Cal TRACON
Thu 01:39:29 PM 36.9333 -122.0167 345° North 367 422 12,300 -3,079 Descending Northern Cal TRACON
Thu 01:39:45 PM 36.9553 -122.0192 355° North 362 417 11,400 -1,846 Descending Oakland Center
Thu 01:40:47 PM 37.0453 -122.0408 349° North 333 383 9,900 -732 Descending Oakland Center
Thu 01:41:48 PM 37.1203 -122.0614 348° North 280 322 9,900 -293 Level Oakland Center
Thu 01:42:50 PM 37.1892 -122.0800 348° North 258 297 9,300 -976 Descending Oakland Center
Thu 01:43:51 PM 37.2572 -122.0986 348° North 251 289 7,900 -1,561 Descending Oakland Center
Thu 01:44:53 PM 37.3222 -122.1164 348° North 241 277 6,100 -1,073 Descending Oakland Center
Thu 01:45:54 PM 37.3883 -122.1319 349° North 242 278 5,700 -439 Descending Oakland Center
Thu 01:46:56 PM 37.4444 -122.1461 349° North 216 249 5,200 -829 Descending Oakland Center
Thu 01:47:57 PM 37.5061 -122.1667 345° North 195 224 4,000 -1,122 Descending Oakland Center
Thu 01:48:59 PM 37.5447 -122.2044 322° Northwest 184 212 2,900 -1,065 Descending Oakland Center

Login

Don't have an account? Register now (free) for customized features, flight alerts, and more!